sensor_id;sensor_type;location;lat;lon;timestamp;P1;durP1;ratioP1;P2;durP2;ratioP2
85781;SDS011;76219;50.128;8.728;2024-02-28T00:03:13;23.92;;;15.35;;
85781;SDS011;76219;50.128;8.728;2024-02-28T00:06:11;27.70;;;15.85;;
85781;SDS011;76219;50.128;8.728;2024-02-28T00:09:03;24.58;;;16.45;;
85781;SDS011;76219;50.128;8.728;2024-02-28T00:12:17;25.00;;;16.45;;
85781;SDS011;76219;50.128;8.728;2024-02-28T00:15:12;25.50;;;16.20;;
85781;SDS011;76219;50.128;8.728;2024-02-28T00:18:42;22.92;;;15.75;;
85781;SDS011;76219;50.128;8.728;2024-02-28T00:33:27;25.77;;;16.45;;
85781;SDS011;76219;50.128;8.728;2024-02-28T00:35:59;24.90;;;17.20;;
85781;SDS011;76219;50.128;8.728;2024-02-28T00:39:00;25.40;;;16.50;;
85781;SDS011;76219;50.128;8.728;2024-02-28T00:41:31;26.00;;;17.00;;
85781;SDS011;76219;50.128;8.728;2024-02-28T00:44:26;26.58;;;16.35;;
85781;SDS011;76219;50.128;8.728;2024-02-28T00:47:14;27.40;;;17.77;;
85781;SDS011;76219;50.128;8.728;2024-02-28T00:49:56;27.65;;;18.23;;
85781;SDS011;76219;50.128;8.728;2024-02-28T00:52:34;24.85;;;17.27;;
85781;SDS011;76219;50.128;8.728;2024-02-28T00:55:06;28.48;;;17.23;;
85781;SDS011;76219;50.128;8.728;2024-02-28T00:57:36;27.17;;;17.40;;
85781;SDS011;76219;50.128;8.728;2024-02-28T01:00:08;26.23;;;16.20;;
85781;SDS011;76219;50.128;8.728;2024-02-28T01:02:39;24.75;;;16.38;;
85781;SDS011;76219;50.128;8.728;2024-02-28T01:05:10;29.20;;;17.90;;
85781;SDS011;76219;50.128;8.728;2024-02-28T01:07:39;26.17;;;16.98;;
85781;SDS011;76219;50.128;8.728;2024-02-28T01:10:08;27.05;;;18.23;;
85781;SDS011;76219;50.128;8.728;2024-02-28T01:12:40;30.02;;;17.80;;
85781;SDS011;76219;50.128;8.728;2024-02-28T01:15:11;27.05;;;16.67;;
85781;SDS011;76219;50.128;8.728;2024-02-28T01:17:43;27.77;;;17.10;;
85781;SDS011;76219;50.128;8.728;2024-02-28T01:20:30;27.50;;;17.63;;
85781;SDS011;76219;50.128;8.728;2024-02-28T01:23:03;30.70;;;18.52;;
85781;SDS011;76219;50.128;8.728;2024-02-28T01:25:46;25.42;;;16.98;;
85781;SDS011;76219;50.128;8.728;2024-02-28T01:28:49;26.80;;;17.48;;
85781;SDS011;76219;50.128;8.728;2024-02-28T01:31:55;26.83;;;17.48;;
85781;SDS011;76219;50.128;8.728;2024-02-28T01:34:42;27.83;;;17.52;;
85781;SDS011;76219;50.128;8.728;2024-02-28T01:37:15;28.55;;;18.05;;
85781;SDS011;76219;50.128;8.728;2024-02-28T01:39:46;25.75;;;17.00;;
85781;SDS011;76219;50.128;8.728;2024-02-28T01:42:17;29.00;;;17.90;;
85781;SDS011;76219;50.128;8.728;2024-02-28T01:44:53;27.05;;;16.95;;
85781;SDS011;76219;50.128;8.728;2024-02-28T01:47:26;27.00;;;17.17;;
85781;SDS011;76219;50.128;8.728;2024-02-28T01:50:00;31.10;;;18.13;;
85781;SDS011;76219;50.128;8.728;2024-02-28T01:52:31;28.35;;;18.10;;
85781;SDS011;76219;50.128;8.728;2024-02-28T01:55:01;25.67;;;16.52;;
85781;SDS011;76219;50.128;8.728;2024-02-28T01:57:30;30.17;;;18.85;;
85781;SDS011;76219;50.128;8.728;2024-02-28T02:00:05;27.45;;;17.27;;
85781;SDS011;76219;50.128;8.728;2024-02-28T02:02:38;28.50;;;17.40;;
85781;SDS011;76219;50.128;8.728;2024-02-28T02:05:09;31.70;;;18.02;;
85781;SDS011;76219;50.128;8.728;2024-02-28T02:07:40;26.80;;;17.50;;
85781;SDS011;76219;50.128;8.728;2024-02-28T02:10:14;30.50;;;18.08;;
85781;SDS011;76219;50.128;8.728;2024-02-28T02:15:41;28.58;;;18.35;;
85781;SDS011;76219;50.128;8.728;2024-02-28T02:18:11;30.25;;;18.80;;
85781;SDS011;76219;50.128;8.728;2024-02-28T02:20:43;29.58;;;18.38;;
85781;SDS011;76219;50.128;8.728;2024-02-28T02:23:30;26.67;;;16.98;;
85781;SDS011;76219;50.128;8.728;2024-02-28T02:25:59;29.42;;;17.50;;
85781;SDS011;76219;50.128;8.728;2024-02-28T02:28:32;29.35;;;18.92;;
85781;SDS011;76219;50.128;8.728;2024-02-28T02:31:06;31.60;;;19.83;;
85781;SDS011;76219;50.128;8.728;2024-02-28T02:33:48;32.25;;;18.58;;
85781;SDS011;76219;50.128;8.728;2024-02-28T02:36:27;30.73;;;18.85;;
85781;SDS011;76219;50.128;8.728;2024-02-28T02:38:59;34.45;;;19.40;;
85781;SDS011;76219;50.128;8.728;2024-02-28T02:41:30;30.02;;;18.75;;
85781;SDS011;76219;50.128;8.728;2024-02-28T02:43:59;29.27;;;18.42;;
85781;SDS011;76219;50.128;8.728;2024-02-28T02:46:30;31.65;;;19.25;;
85781;SDS011;76219;50.128;8.728;2024-02-28T02:49:01;38.25;;;21.65;;
85781;SDS011;76219;50.128;8.728;2024-02-28T02:51:34;32.88;;;19.52;;
85781;SDS011;76219;50.128;8.728;2024-02-28T02:54:05;31.40;;;18.73;;
85781;SDS011;76219;50.128;8.728;2024-02-28T02:56:33;34.75;;;19.40;;
85781;SDS011;76219;50.128;8.728;2024-02-28T02:59:04;31.80;;;19.02;;
85781;SDS011;76219;50.128;8.728;2024-02-28T03:01:49;35.83;;;20.75;;
85781;SDS011;76219;50.128;8.728;2024-02-28T03:04:24;34.50;;;21.05;;
85781;SDS011;76219;50.128;8.728;2024-02-28T03:07:01;38.95;;;21.88;;
85781;SDS011;76219;50.128;8.728;2024-02-28T03:09:40;33.83;;;22.27;;
85781;SDS011;76219;50.128;8.728;2024-02-28T03:12:18;35.95;;;20.77;;
85781;SDS011;76219;50.128;8.728;2024-02-28T03:14:58;35.72;;;21.63;;
85781;SDS011;76219;50.128;8.728;2024-02-28T03:17:31;39.53;;;20.60;;
85781;SDS011;76219;50.128;8.728;2024-02-28T03:20:00;38.35;;;22.33;;
85781;SDS011;76219;50.128;8.728;2024-02-28T03:22:39;34.45;;;20.65;;
85781;SDS011;76219;50.128;8.728;2024-02-28T03:28:11;39.38;;;21.98;;
85781;SDS011;76219;50.128;8.728;2024-02-28T03:35:22;40.60;;;22.10;;
85781;SDS011;76219;50.128;8.728;2024-02-28T03:38:22;34.92;;;20.25;;
85781;SDS011;76219;50.128;8.728;2024-02-28T03:44:42;37.00;;;21.00;;
85781;SDS011;76219;50.128;8.728;2024-02-28T03:47:17;36.55;;;20.17;;
85781;SDS011;76219;50.128;8.728;2024-02-28T03:49:56;42.55;;;22.17;;
85781;SDS011;76219;50.128;8.728;2024-02-28T03:52:44;41.78;;;23.88;;
85781;SDS011;76219;50.128;8.728;2024-02-28T03:55:18;46.70;;;23.48;;
85781;SDS011;76219;50.128;8.728;2024-02-28T03:58:02;44.70;;;23.95;;
85781;SDS011;76219;50.128;8.728;2024-02-28T04:00:39;46.70;;;22.85;;
85781;SDS011;76219;50.128;8.728;2024-02-28T04:03:17;44.50;;;23.73;;
85781;SDS011;76219;50.128;8.728;2024-02-28T04:06:03;48.47;;;24.08;;
85781;SDS011;76219;50.128;8.728;2024-02-28T04:08:32;49.65;;;24.08;;
85781;SDS011;76219;50.128;8.728;2024-02-28T04:11:00;43.00;;;22.77;;
85781;SDS011;76219;50.128;8.728;2024-02-28T04:13:33;47.95;;;24.50;;
85781;SDS011;76219;50.128;8.728;2024-02-28T04:16:04;41.50;;;23.80;;
85781;SDS011;76219;50.128;8.728;2024-02-28T04:18:32;42.47;;;22.90;;
85781;SDS011;76219;50.128;8.728;2024-02-28T04:21:03;44.50;;;22.50;;
85781;SDS011;76219;50.128;8.728;2024-02-28T04:23:31;43.25;;;23.35;;
85781;SDS011;76219;50.128;8.728;2024-02-28T04:26:01;44.10;;;23.85;;
85781;SDS011;76219;50.128;8.728;2024-02-28T04:28:35;46.53;;;24.23;;
85781;SDS011;76219;50.128;8.728;2024-02-28T04:31:09;43.28;;;22.75;;
85781;SDS011;76219;50.128;8.728;2024-02-28T04:33:39;46.38;;;24.80;;
85781;SDS011;76219;50.128;8.728;2024-02-28T04:36:11;50.83;;;25.50;;
85781;SDS011;76219;50.128;8.728;2024-02-28T04:38:46;41.60;;;22.38;;
85781;SDS011;76219;50.128;8.728;2024-02-28T04:41:28;50.85;;;24.48;;
85781;SDS011;76219;50.128;8.728;2024-02-28T04:44:01;44.85;;;23.60;;
85781;SDS011;76219;50.128;8.728;2024-02-28T04:46:33;46.78;;;23.20;;
85781;SDS011;76219;50.128;8.728;2024-02-28T04:49:06;51.35;;;26.83;;
85781;SDS011;76219;50.128;8.728;2024-02-28T04:54:35;49.80;;;25.30;;
85781;SDS011;76219;50.128;8.728;2024-02-28T04:57:54;49.92;;;25.05;;
85781;SDS011;76219;50.128;8.728;2024-02-28T05:00:58;50.75;;;27.45;;
85781;SDS011;76219;50.128;8.728;2024-02-28T05:04:08;48.83;;;25.83;;
85781;SDS011;76219;50.128;8.728;2024-02-28T05:07:08;53.25;;;25.88;;
85781;SDS011;76219;50.128;8.728;2024-02-28T05:10:00;52.75;;;28.40;;
85781;SDS011;76219;50.128;8.728;2024-02-28T05:13:08;52.65;;;26.90;;
85781;SDS011;76219;50.128;8.728;2024-02-28T05:22:39;54.88;;;25.70;;
85781;SDS011;76219;50.128;8.728;2024-02-28T05:26:05;53.75;;;25.30;;
85781;SDS011;76219;50.128;8.728;2024-02-28T05:29:11;49.95;;;25.48;;
85781;SDS011;76219;50.128;8.728;2024-02-28T05:42:33;65.15;;;29.20;;
85781;SDS011;76219;50.128;8.728;2024-02-28T05:45:49;59.25;;;27.98;;
85781;SDS011;76219;50.128;8.728;2024-02-28T05:49:08;70.80;;;31.65;;
85781;SDS011;76219;50.128;8.728;2024-02-28T06:55:41;47.20;;;25.40;;
85781;SDS011;76219;50.128;8.728;2024-02-28T06:58:28;43.53;;;24.00;;
85781;SDS011;76219;50.128;8.728;2024-02-28T07:01:02;41.70;;;23.67;;
85781;SDS011;76219;50.128;8.728;2024-02-28T07:03:41;43.83;;;23.80;;
85781;SDS011;76219;50.128;8.728;2024-02-28T07:10:06;37.65;;;22.30;;
85781;SDS011;76219;50.128;8.728;2024-02-28T07:12:36;37.67;;;21.65;;
85781;SDS011;76219;50.128;8.728;2024-02-28T07:15:10;38.55;;;21.35;;
85781;SDS011;76219;50.128;8.728;2024-02-28T07:17:41;38.67;;;23.02;;
85781;SDS011;76219;50.128;8.728;2024-02-28T07:20:44;40.22;;;23.48;;
85781;SDS011;76219;50.128;8.728;2024-02-28T07:23:41;36.10;;;22.60;;
85781;SDS011;76219;50.128;8.728;2024-02-28T07:45:24;47.72;;;22.75;;
85781;SDS011;76219;50.128;8.728;2024-02-28T07:48:13;35.67;;;21.65;;
85781;SDS011;76219;50.128;8.728;2024-02-28T07:55:49;35.33;;;20.92;;
85781;SDS011;76219;50.128;8.728;2024-02-28T07:58:51;33.97;;;22.55;;
85781;SDS011;76219;50.128;8.728;2024-02-28T08:02:10;33.15;;;20.95;;
85781;SDS011;76219;50.128;8.728;2024-02-28T08:05:46;33.65;;;21.33;;
85781;SDS011;76219;50.128;8.728;2024-02-28T08:09:27;30.52;;;20.40;;
85781;SDS011;76219;50.128;8.728;2024-02-28T08:12:55;33.78;;;21.38;;
85781;SDS011;76219;50.128;8.728;2024-02-28T08:15:32;29.08;;;19.83;;
85781;SDS011;76219;50.128;8.728;2024-02-28T08:21:18;30.42;;;19.10;;
85781;SDS011;76219;50.128;8.728;2024-02-28T08:24:04;29.10;;;20.67;;
85781;SDS011;76219;50.128;8.728;2024-02-28T08:40:11;27.70;;;18.63;;
85781;SDS011;76219;50.128;8.728;2024-02-28T08:42:56;28.60;;;19.13;;
85781;SDS011;76219;50.128;8.728;2024-02-28T08:45:55;28.73;;;18.20;;
85781;SDS011;76219;50.128;8.728;2024-02-28T08:49:02;27.13;;;18.35;;
85781;SDS011;76219;50.128;8.728;2024-02-28T09:02:42;29.00;;;18.52;;
85781;SDS011;76219;50.128;8.728;2024-02-28T09:05:14;28.17;;;18.23;;
85781;SDS011;76219;50.128;8.728;2024-02-28T09:08:13;29.50;;;18.48;;
85781;SDS011;76219;50.128;8.728;2024-02-28T09:10:42;26.60;;;16.45;;
85781;SDS011;76219;50.128;8.728;2024-02-28T09:13:14;27.10;;;17.52;;
85781;SDS011;76219;50.128;8.728;2024-02-28T09:15:48;29.50;;;18.13;;
85781;SDS011;76219;50.128;8.728;2024-02-28T09:18:30;26.25;;;16.65;;
85781;SDS011;76219;50.128;8.728;2024-02-28T09:21:10;29.35;;;18.33;;
85781;SDS011;76219;50.128;8.728;2024-02-28T09:23:52;27.75;;;17.30;;
85781;SDS011;76219;50.128;8.728;2024-02-28T09:26:34;28.63;;;18.75;;
85781;SDS011;76219;50.128;8.728;2024-02-28T09:29:17;27.67;;;17.20;;
85781;SDS011;76219;50.128;8.728;2024-02-28T09:31:57;25.50;;;17.60;;
85781;SDS011;76219;50.128;8.728;2024-02-28T09:34:30;26.77;;;17.33;;
85781;SDS011;76219;50.128;8.728;2024-02-28T09:37:05;24.00;;;17.30;;
85781;SDS011;76219;50.128;8.728;2024-02-28T09:39:40;27.20;;;16.52;;
85781;SDS011;76219;50.128;8.728;2024-02-28T09:42:15;25.20;;;16.63;;
85781;SDS011;76219;50.128;8.728;2024-02-28T09:45:30;25.88;;;17.17;;
85781;SDS011;76219;50.128;8.728;2024-02-28T09:48:10;26.02;;;16.70;;
85781;SDS011;76219;50.128;8.728;2024-02-28T10:00:35;27.48;;;16.95;;
85781;SDS011;76219;50.128;8.728;2024-02-28T10:03:12;27.85;;;18.02;;
85781;SDS011;76219;50.128;8.728;2024-02-28T10:06:16;29.15;;;19.45;;
85781;SDS011;76219;50.128;8.728;2024-02-28T10:09:09;29.02;;;19.25;;
85781;SDS011;76219;50.128;8.728;2024-02-28T10:11:57;26.90;;;18.05;;
85781;SDS011;76219;50.128;8.728;2024-02-28T10:14:44;32.60;;;19.40;;
85781;SDS011;76219;50.128;8.728;2024-02-28T10:17:14;30.88;;;20.02;;
85781;SDS011;76219;50.128;8.728;2024-02-28T10:19:48;31.90;;;18.40;;
85781;SDS011;76219;50.128;8.728;2024-02-28T10:22:44;30.00;;;19.38;;
85781;SDS011;76219;50.128;8.728;2024-02-28T10:25:19;27.75;;;18.15;;
85781;SDS011;76219;50.128;8.728;2024-02-28T10:28:13;29.27;;;19.67;;
85781;SDS011;76219;50.128;8.728;2024-02-28T10:37:40;33.28;;;19.73;;
85781;SDS011;76219;50.128;8.728;2024-02-28T10:43:28;31.77;;;19.77;;
85781;SDS011;76219;50.128;8.728;2024-02-28T10:46:09;31.08;;;18.10;;
85781;SDS011;76219;50.128;8.728;2024-02-28T10:49:16;33.50;;;19.17;;
85781;SDS011;76219;50.128;8.728;2024-02-28T10:52:23;29.63;;;18.23;;
85781;SDS011;76219;50.128;8.728;2024-02-28T10:55:48;31.27;;;19.02;;
85781;SDS011;76219;50.128;8.728;2024-02-28T10:58:29;31.27;;;19.05;;
85781;SDS011;76219;50.128;8.728;2024-02-28T11:17:12;28.50;;;20.73;;
85781;SDS011;76219;50.128;8.728;2024-02-28T11:19:54;26.80;;;19.50;;
85781;SDS011;76219;50.128;8.728;2024-02-28T11:23:20;25.52;;;18.63;;
85781;SDS011;76219;50.128;8.728;2024-02-28T11:37:04;26.92;;;20.98;;
85781;SDS011;76219;50.128;8.728;2024-02-28T11:39:34;28.92;;;21.92;;
85781;SDS011;76219;50.128;8.728;2024-02-28T11:45:56;23.13;;;17.75;;
85781;SDS011;76219;50.128;8.728;2024-02-28T11:48:29;25.17;;;18.35;;
85781;SDS011;76219;50.128;8.728;2024-02-28T11:51:15;23.60;;;18.98;;
85781;SDS011;76219;50.128;8.728;2024-02-28T11:53:50;22.17;;;19.00;;
85781;SDS011;76219;50.128;8.728;2024-02-28T11:56:19;24.42;;;19.85;;
85781;SDS011;76219;50.128;8.728;2024-02-28T11:58:54;25.70;;;19.25;;
85781;SDS011;76219;50.128;8.728;2024-02-28T12:01:37;25.83;;;19.25;;
85781;SDS011;76219;50.128;8.728;2024-02-28T12:04:17;23.08;;;18.23;;
85781;SDS011;76219;50.128;8.728;2024-02-28T12:06:47;23.20;;;18.05;;
85781;SDS011;76219;50.128;8.728;2024-02-28T12:09:24;24.90;;;18.70;;
85781;SDS011;76219;50.128;8.728;2024-02-28T12:12:11;21.95;;;17.70;;
85781;SDS011;76219;50.128;8.728;2024-02-28T12:14:43;22.95;;;18.10;;
85781;SDS011;76219;50.128;8.728;2024-02-28T12:17:11;23.27;;;18.67;;
85781;SDS011;76219;50.128;8.728;2024-02-28T12:19:43;22.15;;;18.38;;
85781;SDS011;76219;50.128;8.728;2024-02-28T12:22:23;23.48;;;18.40;;
85781;SDS011;76219;50.128;8.728;2024-02-28T12:24:58;23.30;;;18.48;;
85781;SDS011;76219;50.128;8.728;2024-02-28T12:27:34;23.42;;;18.02;;
85781;SDS011;76219;50.128;8.728;2024-02-28T12:30:07;22.45;;;18.38;;
85781;SDS011;76219;50.128;8.728;2024-02-28T12:32:43;22.10;;;17.80;;
85781;SDS011;76219;50.128;8.728;2024-02-28T12:49:54;21.63;;;17.25;;
85781;SDS011;76219;50.128;8.728;2024-02-28T12:52:53;21.85;;;17.23;;
85781;SDS011;76219;50.128;8.728;2024-02-28T13:00:56;22.15;;;17.88;;
85781;SDS011;76219;50.128;8.728;2024-02-28T13:03:34;22.50;;;17.83;;
85781;SDS011;76219;50.128;8.728;2024-02-28T13:06:18;21.08;;;16.85;;
85781;SDS011;76219;50.128;8.728;2024-02-28T13:08:52;20.83;;;15.45;;
85781;SDS011;76219;50.128;8.728;2024-02-28T13:11:22;22.88;;;16.98;;
85781;SDS011;76219;50.128;8.728;2024-02-28T13:14:03;20.13;;;16.60;;
85781;SDS011;76219;50.128;8.728;2024-02-28T13:16:32;18.63;;;15.15;;
85781;SDS011;76219;50.128;8.728;2024-02-28T13:19:02;21.55;;;16.73;;
85781;SDS011;76219;50.128;8.728;2024-02-28T13:21:35;21.58;;;15.98;;
85781;SDS011;76219;50.128;8.728;2024-02-28T13:24:08;19.77;;;15.90;;
85781;SDS011;76219;50.128;8.728;2024-02-28T13:26:38;19.85;;;14.93;;
85781;SDS011;76219;50.128;8.728;2024-02-28T13:29:08;19.23;;;16.08;;
85781;SDS011;76219;50.128;8.728;2024-02-28T13:31:37;23.77;;;17.00;;
85781;SDS011;76219;50.128;8.728;2024-02-28T13:34:23;21.42;;;16.08;;
85781;SDS011;76219;50.128;8.728;2024-02-28T13:36:53;19.75;;;15.80;;
85781;SDS011;76219;50.128;8.728;2024-02-28T13:39:35;22.33;;;16.27;;
85781;SDS011;76219;50.128;8.728;2024-02-28T13:42:07;20.90;;;14.90;;
85781;SDS011;76219;50.128;8.728;2024-02-28T13:57:59;20.13;;;15.43;;
85781;SDS011;76219;50.128;8.728;2024-02-28T14:00:39;22.85;;;15.43;;
85781;SDS011;76219;50.128;8.728;2024-02-28T14:03:41;18.17;;;14.00;;
85781;SDS011;76219;50.128;8.728;2024-02-28T14:06:36;17.48;;;13.15;;
85781;SDS011;76219;50.128;8.728;2024-02-28T14:09:18;19.38;;;13.07;;
85781;SDS011;76219;50.128;8.728;2024-02-28T14:16:05;19.65;;;13.90;;
85781;SDS011;76219;50.128;8.728;2024-02-28T14:19:51;19.55;;;13.27;;
85781;SDS011;76219;50.128;8.728;2024-02-28T14:22:41;18.25;;;12.93;;
85781;SDS011;76219;50.128;8.728;2024-02-28T14:25:43;17.73;;;13.25;;
85781;SDS011;76219;50.128;8.728;2024-02-28T14:36:19;15.85;;;13.70;;
85781;SDS011;76219;50.128;8.728;2024-02-28T14:39:08;16.35;;;12.32;;
85781;SDS011;76219;50.128;8.728;2024-02-28T14:46:14;15.75;;;11.35;;
85781;SDS011;76219;50.128;8.728;2024-02-28T14:49:13;16.42;;;11.60;;
85781;SDS011;76219;50.128;8.728;2024-02-28T15:08:44;20.63;;;11.27;;
85781;SDS011;76219;50.128;8.728;2024-02-28T15:11:23;17.23;;;13.10;;
85781;SDS011;76219;50.128;8.728;2024-02-28T15:14:07;21.65;;;12.98;;
85781;SDS011;76219;50.128;8.728;2024-02-28T15:16:41;13.85;;;9.50;;
85781;SDS011;76219;50.128;8.728;2024-02-28T15:19:19;19.67;;;11.27;;
85781;SDS011;76219;50.128;8.728;2024-02-28T15:22:07;19.40;;;12.60;;
85781;SDS011;76219;50.128;8.728;2024-02-28T15:27:39;14.65;;;9.98;;
85781;SDS011;76219;50.128;8.728;2024-02-28T15:30:35;20.23;;;12.73;;
85781;SDS011;76219;50.128;8.728;2024-02-28T15:33:17;15.77;;;9.30;;
85781;SDS011;76219;50.128;8.728;2024-02-28T15:36:11;14.75;;;10.40;;
85781;SDS011;76219;50.128;8.728;2024-02-28T15:38:57;16.42;;;10.00;;
85781;SDS011;76219;50.128;8.728;2024-02-28T15:44:44;16.98;;;9.93;;
85781;SDS011;76219;50.128;8.728;2024-02-28T15:47:31;15.10;;;10.23;;
85781;SDS011;76219;50.128;8.728;2024-02-28T15:50:15;14.07;;;10.25;;
85781;SDS011;76219;50.128;8.728;2024-02-28T15:52:57;14.82;;;9.43;;
85781;SDS011;76219;50.128;8.728;2024-02-28T15:55:47;16.30;;;9.70;;
85781;SDS011;76219;50.128;8.728;2024-02-28T15:58:42;16.60;;;9.85;;
85781;SDS011;76219;50.128;8.728;2024-02-28T16:01:22;12.77;;;9.48;;
85781;SDS011;76219;50.128;8.728;2024-02-28T16:04:15;17.13;;;9.60;;
85781;SDS011;76219;50.128;8.728;2024-02-28T16:07:13;15.00;;;9.32;;
85781;SDS011;76219;50.128;8.728;2024-02-28T16:10:13;16.98;;;10.45;;
85781;SDS011;76219;50.128;8.728;2024-02-28T16:13:08;12.75;;;9.93;;
85781;SDS011;76219;50.128;8.728;2024-02-28T16:16:07;15.65;;;9.63;;
85781;SDS011;76219;50.128;8.728;2024-02-28T16:18:53;14.85;;;9.18;;
85781;SDS011;76219;50.128;8.728;2024-02-28T16:21:39;12.80;;;9.38;;
85781;SDS011;76219;50.128;8.728;2024-02-28T16:24:23;15.23;;;9.32;;
85781;SDS011;76219;50.128;8.728;2024-02-28T16:26:58;14.77;;;10.05;;
85781;SDS011;76219;50.128;8.728;2024-02-28T16:29:42;14.13;;;9.65;;
85781;SDS011;76219;50.128;8.728;2024-02-28T16:35:08;14.43;;;10.32;;
85781;SDS011;76219;50.128;8.728;2024-02-28T16:37:41;13.52;;;9.77;;
85781;SDS011;76219;50.128;8.728;2024-02-28T16:41:03;16.38;;;10.70;;
85781;SDS011;76219;50.128;8.728;2024-02-28T16:43:34;14.90;;;10.87;;
85781;SDS011;76219;50.128;8.728;2024-02-28T16:46:07;15.15;;;10.70;;
85781;SDS011;76219;50.128;8.728;2024-02-28T16:48:41;17.80;;;9.80;;
85781;SDS011;76219;50.128;8.728;2024-02-28T16:51:14;14.82;;;10.23;;
85781;SDS011;76219;50.128;8.728;2024-02-28T16:53:54;15.27;;;10.65;;
85781;SDS011;76219;50.128;8.728;2024-02-28T16:56:30;15.88;;;8.77;;
85781;SDS011;76219;50.128;8.728;2024-02-28T16:59:03;18.38;;;10.40;;
85781;SDS011;76219;50.128;8.728;2024-02-28T17:01:49;15.07;;;9.35;;
85781;SDS011;76219;50.128;8.728;2024-02-28T17:11:40;14.05;;;9.35;;
85781;SDS011;76219;50.128;8.728;2024-02-28T17:14:11;17.75;;;11.10;;
85781;SDS011;76219;50.128;8.728;2024-02-28T17:16:59;15.20;;;10.52;;
85781;SDS011;76219;50.128;8.728;2024-02-28T17:19:37;17.13;;;10.05;;
85781;SDS011;76219;50.128;8.728;2024-02-28T17:22:33;16.20;;;9.52;;
85781;SDS011;76219;50.128;8.728;2024-02-28T17:25:17;17.13;;;9.65;;
85781;SDS011;76219;50.128;8.728;2024-02-28T17:31:43;19.17;;;9.40;;
85781;SDS011;76219;50.128;8.728;2024-02-28T17:34:16;22.38;;;10.30;;
85781;SDS011;76219;50.128;8.728;2024-02-28T17:36:46;17.98;;;10.07;;
85781;SDS011;76219;50.128;8.728;2024-02-28T17:39:22;17.23;;;10.15;;
85781;SDS011;76219;50.128;8.728;2024-02-28T17:41:51;18.90;;;10.85;;
85781;SDS011;76219;50.128;8.728;2024-02-28T17:44:22;18.38;;;10.80;;
85781;SDS011;76219;50.128;8.728;2024-02-28T17:46:58;13.48;;;9.40;;
85781;SDS011;76219;50.128;8.728;2024-02-28T17:49:27;14.98;;;10.00;;
85781;SDS011;76219;50.128;8.728;2024-02-28T17:51:56;14.65;;;9.13;;
85781;SDS011;76219;50.128;8.728;2024-02-28T17:54:25;16.42;;;9.70;;
85781;SDS011;76219;50.128;8.728;2024-02-28T17:56:53;15.52;;;9.48;;
85781;SDS011;76219;50.128;8.728;2024-02-28T17:59:23;15.77;;;9.75;;
85781;SDS011;76219;50.128;8.728;2024-02-28T18:01:51;16.75;;;10.82;;
85781;SDS011;76219;50.128;8.728;2024-02-28T18:04:25;16.92;;;9.38;;
85781;SDS011;76219;50.128;8.728;2024-02-28T18:06:55;17.30;;;9.38;;
85781;SDS011;76219;50.128;8.728;2024-02-28T18:09:26;15.05;;;9.20;;
85781;SDS011;76219;50.128;8.728;2024-02-28T18:11:57;15.77;;;9.50;;
85781;SDS011;76219;50.128;8.728;2024-02-28T18:14:28;16.95;;;9.60;;
85781;SDS011;76219;50.128;8.728;2024-02-28T18:17:06;18.70;;;9.35;;
85781;SDS011;76219;50.128;8.728;2024-02-28T18:23:18;16.10;;;9.98;;
85781;SDS011;76219;50.128;8.728;2024-02-28T18:28:34;17.48;;;11.82;;
85781;SDS011;76219;50.128;8.728;2024-02-28T18:31:22;18.45;;;11.80;;
85781;SDS011;76219;50.128;8.728;2024-02-28T18:34:05;27.20;;;13.40;;
85781;SDS011;76219;50.128;8.728;2024-02-28T18:37:02;19.17;;;12.27;;
85781;SDS011;76219;50.128;8.728;2024-02-28T18:39:49;19.58;;;10.30;;
85781;SDS011;76219;50.128;8.728;2024-02-28T18:42:37;19.80;;;13.18;;
85781;SDS011;76219;50.128;8.728;2024-02-28T18:45:29;23.48;;;12.98;;
85781;SDS011;76219;50.128;8.728;2024-02-28T18:48:20;23.13;;;13.50;;
85781;SDS011;76219;50.128;8.728;2024-02-28T18:51:03;18.08;;;12.23;;
85781;SDS011;76219;50.128;8.728;2024-02-28T19:01:14;20.98;;;13.85;;
85781;SDS011;76219;50.128;8.728;2024-02-28T19:04:09;22.00;;;13.02;;
85781;SDS011;76219;50.128;8.728;2024-02-28T19:07:38;21.23;;;12.88;;
85781;SDS011;76219;50.128;8.728;2024-02-28T19:10:43;19.25;;;12.35;;
85781;SDS011;76219;50.128;8.728;2024-02-28T19:13:39;19.17;;;12.60;;
85781;SDS011;76219;50.128;8.728;2024-02-28T19:20:28;25.30;;;14.30;;
85781;SDS011;76219;50.128;8.728;2024-02-28T19:23:03;20.85;;;13.23;;
85781;SDS011;76219;50.128;8.728;2024-02-28T19:26:16;21.48;;;12.27;;
85781;SDS011;76219;50.128;8.728;2024-02-28T19:29:16;18.52;;;12.73;;
85781;SDS011;76219;50.128;8.728;2024-02-28T19:32:36;23.33;;;12.93;;
85781;SDS011;76219;50.128;8.728;2024-02-28T19:35:19;23.58;;;13.25;;
85781;SDS011;76219;50.128;8.728;2024-02-28T19:41:30;24.55;;;13.82;;
85781;SDS011;76219;50.128;8.728;2024-02-28T19:44:49;22.05;;;13.75;;
85781;SDS011;76219;50.128;8.728;2024-02-28T19:47:25;21.13;;;13.50;;
85781;SDS011;76219;50.128;8.728;2024-02-28T19:50:32;20.85;;;13.82;;
85781;SDS011;76219;50.128;8.728;2024-02-28T19:54:11;20.92;;;13.90;;
85781;SDS011;76219;50.128;8.728;2024-02-28T19:57:55;25.63;;;14.95;;
85781;SDS011;76219;50.128;8.728;2024-02-28T20:01:07;22.55;;;14.88;;
85781;SDS011;76219;50.128;8.728;2024-02-28T20:04:11;25.00;;;15.35;;
85781;SDS011;76219;50.128;8.728;2024-02-28T20:07:35;26.10;;;15.68;;
85781;SDS011;76219;50.128;8.728;2024-02-28T20:10:42;26.27;;;15.48;;
85781;SDS011;76219;50.128;8.728;2024-02-28T20:14:11;23.23;;;13.40;;
85781;SDS011;76219;50.128;8.728;2024-02-28T20:29:00;22.70;;;15.52;;
85781;SDS011;76219;50.128;8.728;2024-02-28T20:35:46;30.02;;;15.68;;
85781;SDS011;76219;50.128;8.728;2024-02-28T20:38:59;24.63;;;15.60;;
85781;SDS011;76219;50.128;8.728;2024-02-28T21:33:21;27.85;;;18.25;;
85781;SDS011;76219;50.128;8.728;2024-02-28T21:35:47;29.30;;;18.15;;
85781;SDS011;76219;50.128;8.728;2024-02-28T21:39:15;29.57;;;17.63;;
85781;SDS011;76219;50.128;8.728;2024-02-28T21:42:45;35.53;;;20.35;;
85781;SDS011;76219;50.128;8.728;2024-02-28T21:53:52;29.15;;;18.05;;
85781;SDS011;76219;50.128;8.728;2024-02-28T21:56:53;30.00;;;18.05;;
85781;SDS011;76219;50.128;8.728;2024-02-28T22:00:27;32.38;;;18.23;;
85781;SDS011;76219;50.128;8.728;2024-02-28T22:02:57;27.33;;;18.95;;
85781;SDS011;76219;50.128;8.728;2024-02-28T22:05:30;32.33;;;19.30;;
85781;SDS011;76219;50.128;8.728;2024-02-28T22:08:06;34.08;;;19.67;;
85781;SDS011;76219;50.128;8.728;2024-02-28T22:10:49;32.03;;;19.15;;
85781;SDS011;76219;50.128;8.728;2024-02-28T22:16:57;29.35;;;18.90;;
85781;SDS011;76219;50.128;8.728;2024-02-28T22:23:13;32.47;;;20.80;;
85781;SDS011;76219;50.128;8.728;2024-02-28T22:29:59;29.17;;;19.27;;
85781;SDS011;76219;50.128;8.728;2024-02-28T22:32:34;35.65;;;20.08;;
85781;SDS011;76219;50.128;8.728;2024-02-28T22:35:07;28.65;;;18.48;;
85781;SDS011;76219;50.128;8.728;2024-02-28T22:37:49;29.98;;;18.10;;
85781;SDS011;76219;50.128;8.728;2024-02-28T22:40:43;26.73;;;16.65;;
85781;SDS011;76219;50.128;8.728;2024-02-28T22:43:19;33.72;;;20.30;;
85781;SDS011;76219;50.128;8.728;2024-02-28T22:46:05;32.38;;;19.23;;
85781;SDS011;76219;50.128;8.728;2024-02-28T22:49:06;30.75;;;20.75;;
85781;SDS011;76219;50.128;8.728;2024-02-28T22:51:37;28.95;;;19.17;;
85781;SDS011;76219;50.128;8.728;2024-02-28T22:54:46;31.13;;;20.92;;